This is the latest recevied weather packets stored in our database for station/object KO5MO-11. If no packets are shown the sender has not sent any weather packets the latest 10 day(s).
| Time | Temp. | Humidity | Pressure | Rain* | Wind** | Luminosity | Snow |
|---|---|---|---|---|---|---|---|
| 1777761872 | 23.89° C | 38% | 1008.4 hPa | - | - | 753 W/m² | - |
| 1777761272 | 23.89° C | 37% | 1008.5 hPa | - | - | 757 W/m² | - |
| 1777760672 | 24.44° C | 37% | 1008.6 hPa | - | - | 763 W/m² | - |
| 1777760072 | 26.11° C | 36% | 1008.8 hPa | - | - | 796 W/m² | - |
| 1777759472 | 24.44° C | 42% | 1009 hPa | - | - | 768 W/m² | - |
| 1777758872 | 23.89° C | 37% | 1009.2 hPa | - | - | 754 W/m² | - |
| 1777758272 | 23.89° C | 37% | 1009.4 hPa | - | - | 756 W/m² | - |
| 1777757672 | 25° C | 36% | 1009.5 hPa | - | - | 776 W/m² | - |
| 1777757072 | 26.11° C | 37% | 1009.6 hPa | - | - | 797 W/m² | - |
| 1777756472 | 23.89° C | 40% | 1009.9 hPa | - | - | 755 W/m² | - |
| 1777755872 | 23.89° C | 37% | 1010 hPa | - | - | 756 W/m² | - |
| 1777755272 | 24.44° C | 37% | 1010.1 hPa | - | - | 760 W/m² | - |
| 1777754672 | 25° C | 37% | 1010.1 hPa | - | - | 775 W/m² | - |
| 1777754072 | 25.56° C | 39% | 1010.2 hPa | - | - | 789 W/m² | - |
| 1777753472 | 23.89° C | 38% | 1010.4 hPa | - | - | 751 W/m² | - |
| 1777752872 | 23.89° C | 37% | 1010.5 hPa | - | - | 757 W/m² | - |
| 1777752272 | 24.44° C | 37% | 1010.6 hPa | - | - | 760 W/m² | - |
| 1777751672 | 25° C | 36% | 1010.8 hPa | - | - | 778 W/m² | - |
| 1777751072 | 26.11° C | 36% | 1010.9 hPa | - | - | 797 W/m² | - |
| 1777750472 | 23.89° C | 40% | 1011.1 hPa | - | - | 759 W/m² | - |
| 1777749872 | 23.89° C | 37% | 1011.2 hPa | - | - | 754 W/m² | - |
| 1777749272 | 24.44° C | 37% | 1011.3 hPa | - | - | 763 W/m² | - |
| 1777748672 | 26.11° C | 35% | 1011.4 hPa | - | - | 796 W/m² | - |
| 1777748072 | 25° C | 41% | 1011.7 hPa | - | - | 771 W/m² | - |
| 1777747472 | 23.89° C | 37% | 1011.7 hPa | - | - | 750 W/m² | - |
* Rain since midnight (hover to see other rain measurements)
** Current wind speed in m/s (hover to see current wind gust speed)